Time;durP1;ratioP1;P1;durP2;ratioP2;P2;SDS_P1;SDS_P2;PMS_P1;PMS_P2;Temp;Humidity;BMP_temperature;BMP_pressure;BME280_temperature;BME280_humidity;BME280_pressure;Samples;Min_cycle;Max_cycle;Signal;HPM_P1;HPM_P2
2022/12/21 00:01:27;;;;;;;19.38;13.98;;;6.60;99.90;;;;;;5098988;28;20043;-63
2022/12/21 00:03:56;;;;;;;23.00;15.48;;;6.60;99.90;;;;;;5098143;28;20489;-64
2022/12/21 00:06:25;;;;;;;15.82;12.82;;;6.60;99.90;;;;;;5095558;28;20144;-67
2022/12/21 00:08:54;;;;;;;19.38;14.23;;;6.60;99.90;;;;;;5092174;28;20139;-62
2022/12/21 00:11:22;;;;;;;16.45;12.57;;;6.60;99.90;;;;;;5101590;28;20138;-63
2022/12/21 00:13:50;;;;;;;18.20;13.10;;;6.70;99.90;;;;;;5098714;28;20131;-65
2022/12/21 00:16:20;;;;;;;16.50;12.65;;;6.60;99.90;;;;;;5099005;28;20043;-62
2022/12/21 00:18:47;;;;;;;20.63;15.18;;;6.60;99.90;;;;;;5097257;28;20047;-61
2022/12/21 00:21:23;;;;;;;21.42;14.63;;;6.60;99.90;;;;;;5098555;28;20728;-63
2022/12/21 00:23:52;;;;;;;14.13;11.65;;;6.60;99.90;;;;;;5095442;28;20048;-65
2022/12/21 00:26:21;;;;;;;16.80;12.20;;;6.60;99.90;;;;;;5094567;28;20057;-64
2022/12/21 00:28:50;;;;;;;16.73;12.48;;;6.60;99.90;;;;;;5081231;28;20051;-63
2022/12/21 00:31:19;;;;;;;16.58;12.75;;;6.60;99.90;;;;;;5074358;28;20096;-62
2022/12/21 00:33:46;;;;;;;18.88;13.23;;;6.60;99.90;;;;;;5097121;28;20564;-62
2022/12/21 00:36:17;;;;;;;19.08;12.98;;;6.60;99.90;;;;;;5100393;28;20442;-62
2022/12/21 00:38:46;;;;;;;20.58;14.75;;;6.60;99.90;;;;;;5101143;28;20058;-63
2022/12/21 00:41:17;;;;;;;12.40;11.10;;;6.60;99.90;;;;;;5103618;28;20149;-64
2022/12/21 00:43:44;;;;;;;;;;;6.70;99.90;;;;;;5087285;28;20042;-62
2022/12/21 00:46:20;;;;;;;14.68;11.85;;;6.60;99.90;;;;;;5098825;28;19928;-63
2022/12/21 00:48:47;;;;;;;16.70;10.80;;;6.60;99.90;;;;;;5101134;28;20481;-66
2022/12/21 00:51:17;;;;;;;16.58;12.35;;;6.70;99.90;;;;;;5103892;28;20044;-65
2022/12/21 00:53:45;;;;;;;16.08;13.10;;;6.70;99.90;;;;;;5101749;28;20044;-63
2022/12/21 00:56:13;;;;;;;16.77;13.50;;;6.70;99.90;;;;;;5085509;28;20085;-62
2022/12/21 00:58:41;;;;;;;14.27;12.35;;;6.60;99.90;;;;;;5085403;28;20129;-62
2022/12/21 01:01:12;;;;;;;17.75;13.32;;;6.60;99.90;;;;;;5102893;28;20040;-62
2022/12/21 01:03:40;;;;;;;22.45;14.35;;;6.60;99.90;;;;;;5094412;28;20711;-65
2022/12/21 01:06:20;;;;;;;17.13;14.20;;;6.60;99.90;;;;;;5100408;28;20044;-63
2022/12/21 01:08:47;;;;;;;16.58;12.93;;;6.60;99.90;;;;;;5101630;28;20079;-62
2022/12/21 01:11:18;;;;;;;19.00;13.88;;;6.50;99.90;;;;;;5082421;28;20382;-63
2022/12/21 01:13:46;;;;;;;17.98;13.60;;;6.50;99.90;;;;;;5101879;27;20043;-63
2022/12/21 01:16:23;;;;;;;24.85;14.57;;;6.60;99.90;;;;;;5104060;28;20051;-64
2022/12/21 01:18:51;;;;;;;20.95;14.23;;;6.50;99.90;;;;;;5095324;28;20588;-62
2022/12/21 01:21:26;;;;;;;19.50;13.57;;;6.50;99.90;;;;;;5100427;28;20052;-62
2022/12/21 01:23:55;;;;;;;21.88;12.93;;;6.50;99.90;;;;;;5100792;28;20058;-62
2022/12/21 01:26:23;;;;;;;24.35;14.18;;;6.50;99.90;;;;;;5096476;28;20657;-63
2022/12/21 01:28:51;;;;;;;24.83;14.05;;;6.50;99.90;;;;;;5085416;28;20075;-62
2022/12/21 01:31:18;;;;;;;20.58;13.35;;;6.50;99.90;;;;;;5087643;28;20051;-63
2022/12/21 01:33:45;;;;;;;21.05;13.90;;;6.50;99.90;;;;;;5100807;28;20366;-65
2022/12/21 01:36:15;;;;;;;20.58;14.65;;;6.50;99.90;;;;;;5100865;28;20579;-62
2022/12/21 01:38:43;;;;;;;16.35;11.40;;;6.50;99.90;;;;;;5097815;28;20052;-64
2022/12/21 01:41:15;;;;;;;17.27;12.65;;;6.50;99.90;;;;;;5099334;28;20065;-62
2022/12/21 01:43:47;;;;;;;13.80;11.10;;;6.60;99.90;;;;;;5098835;28;20456;-64
2022/12/21 01:46:42;;;;;;;16.88;12.85;;;6.60;99.90;;;;;;5097885;28;20363;-62
2022/12/21 01:49:17;;;;;;;15.20;12.15;;;6.60;99.90;;;;;;5077504;28;20059;-62
2022/12/21 01:51:50;;;;;;;14.38;11.43;;;6.60;99.90;;;;;;5095783;28;20237;-63
2022/12/21 01:54:39;;;;;;;19.50;14.15;;;6.70;99.90;;;;;;5097634;28;20120;-64
2022/12/21 01:57:09;;;;;;;18.48;12.35;;;6.70;99.90;;;;;;5098869;28;20413;-63
2022/12/21 01:59:41;;;;;;;17.88;13.02;;;6.60;99.90;;;;;;5079474;28;20043;-69
2022/12/21 02:02:13;;;;;;;17.52;13.50;;;6.60;99.90;;;;;;5099034;28;20504;-62
2022/12/21 02:04:41;;;;;;;15.45;11.68;;;6.60;99.90;;;;;;5095463;28;20054;-63
2022/12/21 02:07:08;;;;;;;16.55;11.85;;;6.60;99.90;;;;;;5096809;28;20052;-62
2022/12/21 02:09:39;;;;;;;20.55;15.30;;;6.60;99.90;;;;;;5085490;28;20063;-64
2022/12/21 02:12:13;;;;;;;23.05;14.65;;;6.60;99.90;;;;;;5081828;27;20052;-63
2022/12/21 02:14:43;;;;;;;25.00;13.88;;;6.60;99.90;;;;;;5097955;28;20138;-64
2022/12/21 02:17:36;;;;;;;24.85;14.75;;;6.50;99.90;;;;;;5078372;28;20077;-62
2022/12/21 02:20:25;;;;;;;19.15;12.38;;;6.50;99.90;;;;;;5101085;28;20139;-62
2022/12/21 02:23:35;;;;;;;19.40;14.10;;;6.50;99.90;;;;;;5096132;28;20734;-63
2022/12/21 02:26:50;;;;;;;21.70;13.73;;;6.50;99.90;;;;;;4994848;28;20128;-62
2022/12/21 02:29:35;;;;;;;22.13;13.68;;;6.50;99.90;;;;;;5078285;28;20071;-63
2022/12/21 02:32:30;;;;;;;18.95;12.27;;;6.50;99.90;;;;;;5101940;28;20103;-63
2022/12/21 02:35:02;;;;;;;24.20;13.60;;;6.50;99.90;;;;;;5093721;28;20055;-63
2022/12/21 02:37:40;;;;;;;21.88;14.30;;;6.40;99.90;;;;;;5078984;28;20056;-69
2022/12/21 02:40:22;;;;;;;21.30;12.98;;;6.50;99.90;;;;;;5082374;28;20135;-62
2022/12/21 02:45:50;;;;;;;16.95;12.48;;;6.40;99.90;;;;;;5085358;28;20035;-65
2022/12/21 02:48:30;;;;;;;15.27;11.23;;;6.40;99.90;;;;;;5082849;28;20078;-63
2022/12/21 02:51:00;;;;;;;14.02;11.23;;;6.50;99.90;;;;;;5077423;28;20974;-62
2022/12/21 02:53:32;;;;;;;14.40;10.32;;;6.50;99.90;;;;;;5075959;28;20113;-63
2022/12/21 02:55:59;;;;;;;12.52;11.05;;;6.50;99.90;;;;;;5094948;28;20047;-62
2022/12/21 02:58:26;;;;;;;14.20;9.25;;;6.50;99.90;;;;;;5082901;28;20109;-65
2022/12/21 03:00:53;;;;;;;12.05;8.45;;;6.50;99.90;;;;;;5080855;28;20047;-64
2022/12/21 03:03:48;;;;;;;8.60;7.30;;;6.50;99.90;;;;;;5079885;28;20501;-63
2022/12/21 03:06:27;;;;;;;11.45;7.75;;;6.50;99.90;;;;;;5094595;28;20138;-63
2022/12/21 03:09:20;;;;;;;12.75;8.48;;;6.50;99.90;;;;;;5077339;28;20048;-63
2022/12/21 03:12:12;;;;;;;17.60;9.05;;;6.60;99.90;;;;;;5099323;28;20050;-62
2022/12/21 03:14:48;;;;;;;10.90;8.70;;;6.60;99.90;;;;;;5078564;28;20138;-64
2022/12/21 03:17:41;;;;;;;8.93;7.68;;;6.60;99.90;;;;;;5080005;28;20101;-62
2022/12/21 03:20:27;;;;;;;10.60;8.13;;;6.60;99.90;;;;;;5081052;28;20790;-63
2022/12/21 03:23:15;;;;;;;9.60;8.32;;;6.60;99.90;;;;;;5082070;28;23216;-61
2022/12/21 03:25:52;;;;;;;10.73;8.65;;;6.60;99.90;;;;;;5097840;28;20043;-63
2022/12/21 03:28:26;;;;;;;11.25;8.70;;;6.60;99.90;;;;;;5098879;28;20043;-62
2022/12/21 03:30:58;;;;;;;12.43;9.95;;;6.60;99.90;;;;;;5092978;28;20044;-62
2022/12/21 03:33:30;;;;;;;15.43;9.82;;;6.60;99.90;;;;;;5100234;28;20039;-64
2022/12/21 03:36:03;;;;;;;11.10;8.70;;;6.60;99.90;;;;;;5098336;28;20085;-63
2022/12/21 03:38:51;;;;;;;12.38;9.07;;;6.60;99.90;;;;;;5093870;28;20143;-61
2022/12/21 03:41:28;;;;;;;11.82;9.10;;;6.60;99.90;;;;;;5092538;28;20052;-65
2022/12/21 03:44:00;;;;;;;12.80;8.88;;;6.60;99.90;;;;;;5099697;28;20047;-62
2022/12/21 03:46:40;;;;;;;12.95;7.88;;;6.60;99.90;;;;;;5099313;28;20190;-62
2022/12/21 03:49:36;;;;;;;13.93;9.05;;;6.50;99.90;;;;;;5095368;28;20050;-62
2022/12/21 03:52:20;;;;;;;13.77;9.45;;;6.50;99.90;;;;;;5087036;28;20071;-63
2022/12/21 03:55:01;;;;;;;15.98;11.18;;;6.50;99.90;;;;;;5097091;28;20142;-62
2022/12/21 03:57:28;;;;;;;13.05;10.10;;;6.60;99.90;;;;;;5096179;28;20142;-63
2022/12/21 04:00:00;;;;;;;14.13;9.25;;;6.60;99.90;;;;;;5098556;28;20476;-64
2022/12/21 04:02:37;;;;;;;11.20;9.90;;;6.60;99.90;;;;;;5099720;28;20048;-62
2022/12/21 04:05:57;;;;;;;13.63;9.23;;;6.60;99.90;;;;;;5098256;28;20073;-62
2022/12/21 04:08:25;;;;;;;13.73;9.77;;;6.60;99.90;;;;;;5053404;28;20086;-62
2022/12/21 04:10:52;;;;;;;11.57;8.57;;;6.50;99.90;;;;;;5096773;28;20065;-65
2022/12/21 04:13:19;;;;;;;10.45;8.25;;;6.60;99.90;;;;;;5097705;27;20142;-63
2022/12/21 04:16:04;;;;;;;10.60;8.00;;;6.50;99.90;;;;;;5105381;28;20078;-63
2022/12/21 04:21:19;;;;;;;10.30;8.48;;;6.50;99.90;;;;;;5101639;28;20127;-65
2022/12/21 04:29:17;;;;;;;8.02;6.88;;;6.50;99.90;;;;;;5098553;28;20048;-63
2022/12/21 04:31:44;;;;;;;12.05;8.38;;;6.40;99.90;;;;;;5100390;28;20064;-62
2022/12/21 04:34:11;;;;;;;11.07;8.40;;;6.40;99.90;;;;;;5102265;28;22170;-62
2022/12/21 04:39:23;;;;;;;16.23;7.63;;;6.40;99.90;;;;;;5102975;28;20476;-64
2022/12/21 04:41:50;;;;;;;9.80;7.10;;;6.30;99.90;;;;;;5104934;28;20155;-64
2022/12/21 04:44:17;;;;;;;6.95;4.95;;;6.40;99.90;;;;;;5086698;28;20506;-64
2022/12/21 04:46:44;;;;;;;7.95;6.13;;;6.30;99.90;;;;;;5097665;28;20120;-65
2022/12/21 04:49:11;;;;;;;6.00;5.15;;;6.30;99.90;;;;;;5100848;28;20055;-65
2022/12/21 04:51:37;;;;;;;6.00;4.38;;;6.30;99.90;;;;;;5103670;28;20147;-66
2022/12/21 04:54:04;;;;;;;4.60;3.88;;;6.30;99.90;;;;;;5100813;28;20047;-65
2022/12/21 04:56:31;;;;;;;3.67;3.33;;;6.30;99.90;;;;;;5104615;28;20904;-62
2022/12/21 04:58:58;;;;;;;5.18;4.63;;;6.30;99.90;;;;;;5098180;28;20075;-65
2022/12/21 05:01:25;;;;;;;3.83;3.53;;;6.30;99.90;;;;;;5096055;28;20913;-65
2022/12/21 05:03:56;;;;;;;4.68;4.28;;;6.20;99.90;;;;;;5102293;28;20047;-67
2022/12/21 05:06:23;;;;;;;4.30;3.75;;;6.20;99.90;;;;;;5100349;28;20047;-63
2022/12/21 05:08:50;;;;;;;4.13;3.72;;;6.30;99.90;;;;;;5096518;28;20051;-62
2022/12/21 05:11:20;;;;;;;5.35;4.15;;;6.20;99.90;;;;;;5101739;28;20055;-63
2022/12/21 05:13:48;;;;;;;4.13;3.72;;;6.20;99.90;;;;;;5107036;27;20050;-62
2022/12/21 05:16:18;;;;;;;8.55;6.32;;;6.10;99.90;;;;;;5102174;28;20040;-62
2022/12/21 05:18:48;;;;;;;6.75;5.10;;;6.20;99.90;;;;;;5093686;28;20048;-62
2022/12/21 05:21:16;;;;;;;4.97;4.40;;;6.10;99.90;;;;;;5104287;28;20382;-62
2022/12/21 05:23:43;;;;;;;6.40;5.78;;;6.10;99.90;;;;;;5099256;28;20389;-62
2022/12/21 05:26:10;;;;;;;7.80;5.45;;;6.10;99.90;;;;;;5101358;28;20079;-63
2022/12/21 05:28:44;;;;;;;7.15;5.55;;;6.00;99.90;;;;;;5100005;28;20067;-65
2022/12/21 05:31:11;;;;;;;7.13;5.30;;;6.00;99.90;;;;;;5100422;28;20185;-63
2022/12/21 05:33:38;;;;;;;5.90;5.30;;;6.00;99.90;;;;;;5100451;28;20054;-61
2022/12/21 05:36:09;;;;;;;6.53;4.60;;;6.00;99.90;;;;;;5099074;28;20071;-65
2022/12/21 05:38:35;;;;;;;;;;;5.90;99.90;;;;;;5102559;28;20146;-62
2022/12/21 05:41:03;;;;;;;5.57;4.03;;;5.90;99.90;;;;;;5101282;28;20002;-63
2022/12/21 05:43:30;;;;;;;7.15;3.40;;;5.80;99.90;;;;;;5101237;28;20063;-65
2022/12/21 05:46:06;;;;;;;2.95;2.60;;;5.80;99.90;;;;;;5097453;28;20139;-62
2022/12/21 05:48:33;;;;;;;4.72;3.40;;;5.80;99.90;;;;;;5098791;28;20059;-62
2022/12/21 05:51:07;;;;;;;5.43;2.45;;;5.80;99.90;;;;;;5095052;28;20040;-62
2022/12/21 05:53:35;;;;;;;4.70;2.83;;;5.80;99.90;;;;;;5100803;28;20154;-63
2022/12/21 05:56:03;;;;;;;3.25;2.45;;;5.80;99.90;;;;;;5099442;28;20134;-64
2022/12/21 05:58:29;;;;;;;3.58;2.13;;;5.80;99.90;;;;;;5096810;28;20438;-63
2022/12/21 06:01:00;;;;;;;5.18;2.38;;;5.80;99.90;;;;;;5094519;28;20051;-63
2022/12/21 06:03:27;;;;;;;3.88;2.28;;;5.80;99.90;;;;;;5099660;28;20127;-65
2022/12/21 06:06:07;;;;;;;3.20;2.50;;;5.80;99.90;;;;;;5094621;28;20200;-62
2022/12/21 06:08:35;;;;;;;5.32;2.22;;;5.80;99.90;;;;;;5099898;28;20111;-62
2022/12/21 06:11:11;;;;;;;3.33;2.13;;;5.80;99.90;;;;;;5100697;28;20509;-63
2022/12/21 06:13:38;;;;;;;2.95;1.92;;;5.80;99.90;;;;;;5096215;27;20547;-61
2022/12/21 06:16:11;;;;;;;3.00;2.40;;;5.80;99.90;;;;;;5078153;28;20508;-62
2022/12/21 06:18:39;;;;;;;6.40;1.90;;;5.80;99.90;;;;;;5082253;28;20059;-63
2022/12/21 06:21:09;;;;;;;3.22;2.92;;;5.80;99.90;;;;;;5079926;28;20047;-62
2022/12/21 06:23:36;;;;;;;4.50;2.60;;;5.80;99.90;;;;;;5102443;28;20047;-64
2022/12/21 06:26:05;;;;;;;3.15;1.67;;;5.80;99.90;;;;;;5097055;28;20086;-66
2022/12/21 06:28:33;;;;;;;2.38;1.88;;;5.80;99.90;;;;;;5095520;28;20112;-63
2022/12/21 06:31:05;;;;;;;3.72;1.95;;;5.80;99.90;;;;;;5090120;28;20627;-62
2022/12/21 06:33:33;;;;;;;3.55;1.58;;;5.80;99.90;;;;;;5097557;28;20063;-63
2022/12/21 06:36:00;;;;;;;3.50;2.20;;;5.80;99.90;;;;;;5096437;28;20142;-66
2022/12/21 06:38:28;;;;;;;7.88;2.67;;;5.80;99.90;;;;;;5089266;28;20050;-64
2022/12/21 06:40:57;;;;;;;6.85;2.50;;;5.80;99.90;;;;;;5097045;27;21650;-62
2022/12/21 06:43:26;;;;;;;5.70;1.65;;;5.80;99.90;;;;;;5092798;28;20127;-63
2022/12/21 06:45:58;;;;;;;8.13;1.50;;;5.80;99.90;;;;;;5093251;28;20046;-62
2022/12/21 06:48:26;;;;;;;3.00;1.67;;;5.80;99.90;;;;;;5101365;28;20059;-63
2022/12/21 06:51:03;;;;;;;8.57;2.05;;;5.80;99.90;;;;;;5097349;28;20413;-63
2022/12/21 06:53:33;;;;;;;3.58;1.45;;;5.80;99.90;;;;;;5089939;28;20135;-63
2022/12/21 06:56:08;;;;;;;6.35;3.00;;;5.80;99.90;;;;;;5096926;27;20523;-66
2022/12/21 06:58:45;;;;;;;7.97;3.50;;;5.70;99.90;;;;;;5098681;28;20051;-64
2022/12/21 07:01:17;;;;;;;5.22;2.38;;;5.70;99.90;;;;;;5094277;28;20058;-63
2022/12/21 07:03:45;;;;;;;7.53;1.80;;;5.70;99.90;;;;;;5101335;28;20036;-64
2022/12/21 07:06:14;;;;;;;4.35;1.70;;;5.70;99.90;;;;;;5101969;28;20134;-62
2022/12/21 07:08:42;;;;;;;4.35;1.70;;;5.60;99.90;;;;;;5093839;28;20138;-65
2022/12/21 07:11:12;;;;;;;3.17;2.05;;;5.60;99.90;;;;;;5097337;28;20047;-63
2022/12/21 07:13:42;;;;;;;4.32;1.30;;;5.60;99.90;;;;;;5102065;28;20052;-63
2022/12/21 07:16:10;;;;;;;4.75;2.17;;;5.60;99.90;;;;;;5097039;28;20794;-62
2022/12/21 07:18:37;;;;;;;8.00;2.90;;;5.60;99.90;;;;;;5096680;28;20050;-63
2022/12/21 07:21:07;;;;;;;8.85;1.98;;;5.60;99.90;;;;;;5101894;28;20054;-62
2022/12/21 07:23:36;;;;;;;5.43;1.83;;;5.50;99.90;;;;;;5094347;28;21742;-63
2022/12/21 07:26:08;;;;;;;6.05;2.05;;;5.50;99.90;;;;;;5097996;28;20043;-63
2022/12/21 07:28:35;;;;;;;4.85;2.15;;;5.50;99.90;;;;;;5097935;28;20066;-65
2022/12/21 07:31:07;;;;;;;5.53;2.28;;;5.50;99.90;;;;;;5100480;28;20140;-62
2022/12/21 07:33:35;;;;;;;5.72;2.38;;;5.50;99.90;;;;;;5100234;28;20055;-63
2022/12/21 07:36:04;;;;;;;6.95;2.08;;;5.50;99.90;;;;;;5094317;28;20047;-64
2022/12/21 07:38:32;;;;;;;9.45;2.05;;;5.50;99.90;;;;;;5102686;28;20079;-65
2022/12/21 07:41:01;;;;;;;4.15;1.80;;;5.50;99.90;;;;;;5086718;28;20142;-63
2022/12/21 07:43:29;;;;;;;3.47;2.55;;;5.50;99.90;;;;;;5097282;28;20050;-63
2022/12/21 07:46:06;;;;;;;3.90;1.70;;;5.50;99.90;;;;;;5083331;28;20071;-63
2022/12/21 07:48:34;;;;;;;7.55;2.10;;;5.40;99.90;;;;;;5101814;28;20047;-65
2022/12/21 07:51:02;;;;;;;5.40;1.92;;;5.50;99.90;;;;;;5100602;28;20050;-63
2022/12/21 07:53:30;;;;;;;6.80;2.58;;;5.40;99.90;;;;;;5082734;28;20130;-63
2022/12/21 07:56:12;;;;;;;9.10;2.28;;;5.50;99.90;;;;;;5101240;28;20043;-64
2022/12/21 07:58:39;;;;;;;6.95;2.88;;;5.40;99.90;;;;;;5099594;28;20059;-63
2022/12/21 08:01:09;;;;;;;3.70;2.50;;;5.40;99.90;;;;;;5103861;28;20087;-65
2022/12/21 08:03:37;;;;;;;8.07;2.22;;;5.40;99.90;;;;;;5105633;28;20040;-63
2022/12/21 08:06:06;;;;;;;8.93;3.65;;;5.40;99.90;;;;;;5104384;27;20448;-63
2022/12/21 08:08:35;;;;;;;6.50;2.05;;;5.40;99.90;;;;;;5104062;28;20054;-65
2022/12/21 08:11:02;;;;;;;3.80;1.90;;;5.40;99.90;;;;;;5103108;28;20036;-63
2022/12/21 08:13:29;;;;;;;6.63;1.98;;;5.40;99.90;;;;;;5102663;28;20096;-62
2022/12/21 08:16:00;;;;;;;6.80;1.92;;;5.40;99.90;;;;;;5103705;28;20083;-66
2022/12/21 08:18:28;;;;;;;4.25;2.50;;;5.40;99.90;;;;;;5099105;28;20067;-62
2022/12/21 08:20:56;;;;;;;10.75;2.90;;;5.40;99.90;;;;;;5103968;27;20147;-62
2022/12/21 08:23:23;;;;;;;4.88;1.92;;;5.40;99.90;;;;;;5104725;28;20159;-63
2022/12/21 08:25:51;;;;;;;10.85;2.88;;;5.40;99.90;;;;;;5097831;28;20111;-64
2022/12/21 08:28:18;;;;;;;11.45;4.18;;;5.40;99.90;;;;;;5105544;28;20059;-64
2022/12/21 08:30:46;;;;;;;3.85;1.50;;;5.40;99.90;;;;;;5099806;28;20054;-66
2022/12/21 08:33:13;;;;;;;8.55;2.28;;;5.40;99.90;;;;;;5103094;28;20036;-63
2022/12/21 08:35:43;;;;;;;11.57;3.60;;;5.40;99.90;;;;;;5099490;28;20054;-64
2022/12/21 08:38:10;;;;;;;16.77;3.45;;;5.40;99.90;;;;;;5102481;28;20393;-63
2022/12/21 08:41:01;;;;;;;12.65;3.38;;;5.40;99.90;;;;;;5096210;28;20114;-62
2022/12/21 08:43:29;;;;;;;14.82;3.90;;;5.40;99.90;;;;;;5101162;28;20052;-63
2022/12/21 08:45:56;;;;;;;8.75;3.50;;;5.40;99.90;;;;;;5099435;28;20061;-63
2022/12/21 08:48:23;;;;;;;6.82;3.95;;;5.40;99.90;;;;;;5103279;28;20056;-64
2022/12/21 08:50:56;;;;;;;6.47;1.80;;;5.40;99.90;;;;;;5101715;28;20052;-63
2022/12/21 08:53:24;;;;;;;7.10;2.67;;;5.40;99.90;;;;;;5102127;28;20827;-63
2022/12/21 08:55:51;;;;;;;10.45;1.83;;;5.50;99.90;;;;;;5102364;28;20147;-65
2022/12/21 08:58:18;;;;;;;5.05;2.33;;;5.50;99.90;;;;;;5101701;28;20141;-63
2022/12/21 09:00:45;;;;;;;6.90;2.00;;;5.50;99.90;;;;;;5097862;28;20484;-65
2022/12/21 09:03:13;;;;;;;5.72;2.00;;;5.50;99.90;;;;;;5101346;28;20050;-64
2022/12/21 09:05:41;;;;;;;3.58;1.85;;;5.60;99.90;;;;;;5103870;28;20044;-65
2022/12/21 09:08:08;;;;;;;8.75;2.45;;;5.60;99.90;;;;;;5102638;28;20139;-63
2022/12/21 09:10:35;;;;;;;15.85;3.25;;;5.50;99.90;;;;;;5099641;28;20123;-64
2022/12/21 09:13:02;;;;;;;7.25;2.83;;;5.50;99.90;;;;;;5096084;28;20043;-66
2022/12/21 09:15:29;;;;;;;7.53;2.30;;;5.60;99.90;;;;;;5103429;28;20508;-63
2022/12/21 09:17:56;;;;;;;8.15;2.03;;;5.60;99.90;;;;;;5095701;28;20551;-63
2022/12/21 09:20:23;;;;;;;7.32;2.90;;;5.60;99.90;;;;;;5095530;28;20392;-63
2022/12/21 09:22:50;;;;;;;8.30;3.50;;;5.60;99.90;;;;;;5078683;28;20133;-63
2022/12/21 09:25:17;;;;;;;7.95;2.65;;;5.60;99.90;;;;;;5097729;28;20111;-63
2022/12/21 09:27:44;;;;;;;11.50;2.33;;;5.60;99.90;;;;;;5096386;28;20130;-64
2022/12/21 09:30:11;;;;;;;10.68;2.33;;;5.70;99.90;;;;;;5101511;27;20062;-66
2022/12/21 09:32:38;;;;;;;6.80;2.75;;;5.70;99.90;;;;;;5095653;28;20440;-66
2022/12/21 09:35:05;;;;;;;6.03;3.28;;;5.70;99.90;;;;;;5103789;28;20119;-63
2022/12/21 09:37:32;;;;;;;7.38;1.88;;;5.70;99.90;;;;;;5100456;28;20566;-63
2022/12/21 09:40:09;;;;;;;6.88;2.83;;;5.70;99.90;;;;;;5093531;28;20063;-62
2022/12/21 09:42:42;;;;;;;6.40;4.15;;;5.80;99.90;;;;;;5095266;28;20497;-62
2022/12/21 09:45:24;;;;;;;10.75;2.35;;;5.70;99.90;;;;;;5105889;27;20459;-65
2022/12/21 09:47:59;;;;;;;14.70;2.35;;;5.70;99.90;;;;;;5100470;28;20070;-64
2022/12/21 09:50:31;;;;;;;12.55;2.67;;;5.70;99.90;;;;;;5098271;28;20051;-63
2022/12/21 09:53:11;;;;;;;8.90;1.90;;;5.70;99.90;;;;;;5096849;28;20130;-64
2022/12/21 09:55:46;;;;;;;11.18;2.97;;;5.70;99.90;;;;;;5103188;28;20051;-62
2022/12/21 09:58:19;;;;;;;8.98;2.58;;;5.70;99.90;;;;;;5098922;28;20058;-63
2022/12/21 10:00:51;;;;;;;6.55;2.85;;;5.80;99.90;;;;;;5100472;28;20387;-63
2022/12/21 10:03:45;;;;;;;8.30;1.80;;;5.80;99.90;;;;;;5100701;28;20040;-62
2022/12/21 10:06:44;;;;;;;4.65;2.47;;;5.80;99.90;;;;;;5081371;28;20047;-63
2022/12/21 10:09:20;;;;;;;5.88;3.05;;;5.80;99.90;;;;;;5098570;28;20118;-63
2022/12/21 10:12:05;;;;;;;7.38;2.65;;;5.80;99.90;;;;;;5103398;27;20155;-63
2022/12/21 10:14:56;;;;;;;5.10;3.63;;;5.80;99.90;;;;;;5093728;28;20112;-63
2022/12/21 10:17:23;;;;;;;12.80;3.13;;;5.80;99.90;;;;;;5101289;28;20106;-63
2022/12/21 10:20:32;;;;;;;3.25;2.20;;;5.90;99.90;;;;;;5092642;28;20093;-63
2022/12/21 10:23:02;;;;;;;11.50;3.45;;;5.90;99.90;;;;;;5091772;28;20032;-62
2022/12/21 10:25:45;;;;;;;13.55;2.47;;;5.80;99.90;;;;;;5101017;28;20408;-62
2022/12/21 10:28:30;;;;;;;6.75;2.63;;;5.80;99.90;;;;;;5098209;28;20074;-63
2022/12/21 10:31:04;;;;;;;9.20;2.28;;;5.70;99.90;;;;;;5096842;28;20044;-62
2022/12/21 10:33:37;;;;;;;5.07;2.63;;;5.70;99.90;;;;;;5103024;28;20124;-64
2022/12/21 10:36:05;;;;;;;7.35;2.72;;;5.70;99.90;;;;;;5093749;28;20062;-64
2022/12/21 10:38:34;;;;;;;7.20;3.25;;;5.60;99.90;;;;;;5099541;28;20078;-63
2022/12/21 10:41:08;;;;;;;5.95;3.42;;;5.70;99.90;;;;;;5102832;27;20058;-63
2022/12/21 10:43:39;;;;;;;6.72;2.95;;;5.70;99.90;;;;;;5093326;28;20056;-62
2022/12/21 10:46:06;;;;;;;13.25;3.10;;;5.70;99.90;;;;;;5100815;28;20103;-63
2022/12/21 10:48:33;;;;;;;11.30;2.35;;;5.60;99.90;;;;;;5097761;28;20577;-63
2022/12/21 10:51:33;;;;;;;4.78;2.05;;;5.60;99.90;;;;;;5094815;28;20043;-62
2022/12/21 10:54:03;;;;;;;4.70;2.67;;;5.60;99.90;;;;;;5096522;27;20147;-64
2022/12/21 10:56:33;;;;;;;6.32;2.47;;;5.60;99.90;;;;;;5100937;28;20050;-63
2022/12/21 10:59:19;;;;;;;14.50;3.15;;;5.60;99.90;;;;;;5101640;28;20523;-62
2022/12/21 11:01:45;;;;;;;7.32;1.90;;;5.60;99.90;;;;;;5095576;28;20047;-64
2022/12/21 11:04:16;;;;;;;6.60;2.55;;;5.60;99.90;;;;;;5098768;28;20044;-63
2022/12/21 11:07:03;;;;;;;7.97;2.50;;;5.60;99.90;;;;;;5097945;28;20359;-63
2022/12/21 11:10:01;;;;;;;13.25;4.07;;;5.50;99.90;;;;;;5095362;27;20046;-63
2022/12/21 11:12:51;;;;;;;8.18;2.80;;;5.50;99.90;;;;;;5094969;28;20260;-62
2022/12/21 11:15:21;;;;;;;8.57;3.10;;;5.50;99.90;;;;;;5102378;28;20116;-63
2022/12/21 11:18:25;;;;;;;6.68;3.45;;;5.60;99.90;;;;;;5100865;28;20429;-63
2022/12/21 11:20:53;;;;;;;7.28;1.88;;;5.60;99.90;;;;;;5098152;28;20049;-64
2022/12/21 11:23:19;;;;;;;13.15;2.17;;;5.60;99.90;;;;;;5101718;28;20364;-64
2022/12/21 11:25:46;;;;;;;6.32;2.42;;;5.60;99.90;;;;;;5088790;28;20402;-63
2022/12/21 11:28:19;;;;;;;10.68;2.78;;;5.60;99.90;;;;;;5076317;28;20048;-63
2022/12/21 11:30:54;;;;;;;7.32;2.92;;;5.60;99.90;;;;;;5097702;28;20124;-66
2022/12/21 11:33:22;;;;;;;6.72;2.35;;;5.60;99.90;;;;;;5094026;28;20087;-63
2022/12/21 11:36:28;;;;;;;10.07;3.65;;;5.60;99.90;;;;;;5093970;28;20747;-64
2022/12/21 11:38:55;;;;;;;9.70;2.45;;;5.60;99.90;;;;;;4993385;28;21540;-65
2022/12/21 11:41:28;;;;;;;9.23;2.20;;;5.60;99.90;;;;;;4993683;28;20717;-65
2022/12/21 11:43:56;;;;;;;8.18;3.03;;;5.60;99.90;;;;;;5049306;28;20521;-63
2022/12/21 11:46:40;;;;;;;10.45;3.10;;;5.60;99.90;;;;;;5096484;28;20112;-63
2022/12/21 11:49:36;;;;;;;7.20;1.77;;;5.50;99.90;;;;;;5093811;28;20436;-67
2022/12/21 11:52:42;;;;;;;7.00;2.70;;;5.60;99.90;;;;;;5099017;28;20039;-63
2022/12/21 11:55:15;;;;;;;10.55;3.92;;;5.60;99.90;;;;;;4997186;28;20046;-63
2022/12/21 11:57:51;;;;;;;10.45;2.30;;;5.60;99.90;;;;;;4998464;28;20085;-67
2022/12/21 12:00:21;;;;;;;10.70;3.03;;;5.60;99.90;;;;;;5054722;28;20484;-63
2022/12/21 12:03:25;;;;;;;12.23;2.38;;;5.60;99.90;;;;;;5100688;28;20544;-62
2022/12/21 12:06:19;;;;;;;9.02;3.50;;;5.60;99.90;;;;;;5097980;28;20084;-63
2022/12/21 12:08:55;;;;;;;7.40;2.72;;;5.60;99.90;;;;;;5096002;28;20044;-65
2022/12/21 12:11:29;;;;;;;6.38;1.85;;;5.60;99.90;;;;;;5099475;28;20043;-65
2022/12/21 12:14:01;;;;;;;10.73;2.53;;;5.60;99.90;;;;;;5100743;28;20050;-63
2022/12/21 12:16:40;;;;;;;11.15;2.17;;;5.60;99.90;;;;;;5096045;28;20401;-62
2022/12/21 12:19:26;;;;;;;7.70;2.20;;;5.60;99.90;;;;;;5101185;28;20043;-63
2022/12/21 12:22:21;;;;;;;11.05;2.75;;;5.50;99.90;;;;;;5098734;28;20052;-65
2022/12/21 12:25:08;;;;;;;6.75;2.53;;;5.50;99.90;;;;;;5093184;28;20478;-67
2022/12/21 12:27:44;;;;;;;8.90;2.70;;;5.50;99.90;;;;;;5073007;28;20047;-63
2022/12/21 12:30:24;;;;;;;5.55;2.55;;;5.50;99.90;;;;;;5098797;28;20047;-62
2022/12/21 12:33:15;;;;;;;13.15;3.35;;;5.40;99.90;;;;;;5097038;28;20078;-63
2022/12/21 12:35:51;;;;;;;10.70;2.55;;;5.40;99.90;;;;;;5096399;28;20060;-67
2022/12/21 12:38:21;;;;;;;12.52;4.65;;;5.40;99.90;;;;;;5097051;28;20070;-65
2022/12/21 12:41:03;;;;;;;25.73;3.85;;;5.40;99.90;;;;;;5093588;28;20055;-66
2022/12/21 12:43:55;;;;;;;8.98;3.50;;;5.40;99.90;;;;;;5101312;28;20050;-64
2022/12/21 12:46:51;;;;;;;4.53;2.40;;;5.40;99.90;;;;;;5101753;28;20050;-64
2022/12/21 12:49:27;;;;;;;14.73;5.28;;;5.30;99.90;;;;;;5097818;28;20051;-65
2022/12/21 12:52:38;;;;;;;5.88;3.42;;;5.30;99.90;;;;;;5104165;28;20066;-63
2022/12/21 12:55:22;;;;;;;17.83;6.18;;;5.30;99.90;;;;;;5097082;28;20120;-63
2022/12/21 12:57:59;;;;;;;14.57;3.50;;;5.30;99.90;;;;;;5094022;28;20066;-63
2022/12/21 13:00:29;;;;;;;7.45;2.72;;;5.30;99.90;;;;;;5085827;28;20056;-63
2022/12/21 13:03:21;;;;;;;6.85;2.33;;;5.30;99.90;;;;;;5090869;28;20047;-63
2022/12/21 13:06:06;;;;;;;8.10;2.30;;;5.30;99.90;;;;;;5090839;28;20040;-63
2022/12/21 13:08:42;;;;;;;5.95;2.70;;;5.30;99.90;;;;;;5092684;28;20202;-63
2022/12/21 13:11:29;;;;;;;10.93;2.65;;;5.30;99.90;;;;;;5096186;28;20497;-63
2022/12/21 13:14:24;;;;;;;10.88;2.50;;;5.20;99.90;;;;;;5091619;28;20516;-63
2022/12/21 13:17:10;;;;;;;12.00;3.38;;;5.30;99.90;;;;;;5091040;28;20451;-63
2022/12/21 13:19:41;;;;;;;9.18;2.63;;;5.30;99.90;;;;;;5096844;28;20083;-64
2022/12/21 13:22:17;;;;;;;13.70;2.53;;;5.20;99.90;;;;;;5093063;28;20069;-63
2022/12/21 13:25:00;;;;;;;14.67;2.50;;;5.20;99.90;;;;;;5094822;28;20535;-64
2022/12/21 13:27:37;;;;;;;9.20;2.72;;;5.20;99.90;;;;;;5093892;28;20327;-64
2022/12/21 13:30:11;;;;;;;12.52;2.78;;;5.20;99.90;;;;;;5094835;28;20042;-62
2022/12/21 13:32:48;;;;;;;9.93;2.55;;;5.20;99.90;;;;;;5090755;28;20138;-63
2022/12/21 13:35:30;;;;;;;11.57;3.03;;;5.20;99.90;;;;;;5095874;28;20395;-63
2022/12/21 13:38:21;;;;;;;8.93;2.50;;;5.20;99.90;;;;;;5081139;28;20148;-64
2022/12/21 13:41:10;;;;;;;11.05;3.35;;;5.30;99.90;;;;;;5081960;28;20044;-65